首页
METAR-TAF:

METAR-TAF

机场 :

布赖顿, 英格兰

纬度: 50-50N, 经度: 000-17W, 海拔: 2米

当前天气观测

该预报发布于5小时和59分钟前的17:50 UTC
风速16节,风向西转西南
温度 15°C
湿度 88%
气压 1012 hPa
能見度: 5000
多云层高于500英尺

METAR: EGKA 261750Z 24016KT 5000 BKN005 15/13 Q1012

时间: 00:49 (23:49 UTC)

预报

该预报发布于9小时和52分钟前的13:57 UTC
预报有效从26日的 15点(UTC)到 26日的 18点(UTC)
风速15节,风向西转西南
能见度10公里或以上
散云层高于2000英尺
短暂存在
从 26日的 15点(UTC)到 26日的 18点(UTC)
能見度: 8000
小雨
几率 30% :
短暂存在
从 26日的 15点(UTC)到 26日的 18点(UTC)
多云层高于900英尺
雨, 毛毛雨

TAF: EGKA 261357Z 2615/2618 25015KT 9999 SCT020 TEMPO 2615/2618 8000 -RA PROB30 TEMPO 2615/2618 RADZ BKN009

超过4000个机场的气象观测和天气预报(METAR&TAF报告)。

可查询的气象台以黄色和红色小点在地图上表示。

将鼠标移到小点上方,可查看气象台名称。

然后点击查看天气观测和预报。

如需切换地图:点击带黑十字的绿色按钮放大地图;点击带横线的绿色按钮缩小地图;或者点击绿色箭头查看邻近地区的地图。


METAR-TAF: